sensor_id;sensor_type;location;lat;lon;timestamp;P1;durP1;ratioP1;P2;durP2;ratioP2
28577;SDS011;15769;52.248;15.818;2023-05-07T00:02:13;18.85;;;12.70;;
28577;SDS011;15769;52.248;15.818;2023-05-07T00:07:16;18.47;;;12.97;;
28577;SDS011;15769;52.248;15.818;2023-05-07T00:12:18;17.55;;;12.10;;
28577;SDS011;15769;52.248;15.818;2023-05-07T00:17:21;17.50;;;12.68;;
28577;SDS011;15769;52.248;15.818;2023-05-07T00:22:23;17.85;;;11.73;;
28577;SDS011;15769;52.248;15.818;2023-05-07T00:27:26;15.88;;;11.50;;
28577;SDS011;15769;52.248;15.818;2023-05-07T00:32:28;15.82;;;11.20;;
28577;SDS011;15769;52.248;15.818;2023-05-07T00:37:31;17.90;;;12.15;;
28577;SDS011;15769;52.248;15.818;2023-05-07T00:42:33;17.98;;;11.73;;
28577;SDS011;15769;52.248;15.818;2023-05-07T00:47:36;19.38;;;12.18;;
28577;SDS011;15769;52.248;15.818;2023-05-07T00:57:43;20.70;;;12.20;;
28577;SDS011;15769;52.248;15.818;2023-05-07T01:02:46;17.15;;;11.88;;
28577;SDS011;15769;52.248;15.818;2023-05-07T01:07:51;15.68;;;11.85;;
28577;SDS011;15769;52.248;15.818;2023-05-07T01:12:55;18.75;;;12.65;;
28577;SDS011;15769;52.248;15.818;2023-05-07T01:17:57;15.52;;;10.02;;
28577;SDS011;15769;52.248;15.818;2023-05-07T01:23:06;17.75;;;11.20;;
28577;SDS011;15769;52.248;15.818;2023-05-07T01:28:09;18.20;;;11.13;;
28577;SDS011;15769;52.248;15.818;2023-05-07T01:33:15;16.27;;;11.07;;
28577;SDS011;15769;52.248;15.818;2023-05-07T01:38:21;16.35;;;10.00;;
28577;SDS011;15769;52.248;15.818;2023-05-07T01:43:24;17.23;;;10.95;;
28577;SDS011;15769;52.248;15.818;2023-05-07T01:48:27;16.00;;;10.63;;
28577;SDS011;15769;52.248;15.818;2023-05-07T01:53:35;17.05;;;10.45;;
28577;SDS011;15769;52.248;15.818;2023-05-07T01:58:48;18.38;;;10.98;;
28577;SDS011;15769;52.248;15.818;2023-05-07T02:03:53;17.30;;;10.32;;
28577;SDS011;15769;52.248;15.818;2023-05-07T02:09:03;18.38;;;10.48;;
28577;SDS011;15769;52.248;15.818;2023-05-07T02:14:05;18.75;;;11.60;;
28577;SDS011;15769;52.248;15.818;2023-05-07T02:19:08;16.13;;;11.10;;
28577;SDS011;15769;52.248;15.818;2023-05-07T02:24:11;17.17;;;10.30;;
28577;SDS011;15769;52.248;15.818;2023-05-07T02:29:13;15.55;;;10.35;;
28577;SDS011;15769;52.248;15.818;2023-05-07T02:34:16;15.17;;;9.50;;
28577;SDS011;15769;52.248;15.818;2023-05-07T02:39:19;14.95;;;9.90;;
28577;SDS011;15769;52.248;15.818;2023-05-07T02:44:22;13.77;;;9.40;;
28577;SDS011;15769;52.248;15.818;2023-05-07T02:54:29;14.23;;;8.98;;
28577;SDS011;15769;52.248;15.818;2023-05-07T02:59:32;13.63;;;9.90;;
28577;SDS011;15769;52.248;15.818;2023-05-07T03:09:38;14.93;;;9.82;;
28577;SDS011;15769;52.248;15.818;2023-05-07T03:14:41;15.30;;;9.63;;
28577;SDS011;15769;52.248;15.818;2023-05-07T03:19:44;15.02;;;9.80;;
28577;SDS011;15769;52.248;15.818;2023-05-07T03:24:47;13.25;;;8.90;;
28577;SDS011;15769;52.248;15.818;2023-05-07T03:29:50;17.73;;;10.90;;
28577;SDS011;15769;52.248;15.818;2023-05-07T03:34:52;14.00;;;10.13;;
28577;SDS011;15769;52.248;15.818;2023-05-07T03:39:56;15.05;;;10.25;;
28577;SDS011;15769;52.248;15.818;2023-05-07T03:44:59;15.17;;;10.63;;
28577;SDS011;15769;52.248;15.818;2023-05-07T03:50:01;15.07;;;9.70;;
28577;SDS011;15769;52.248;15.818;2023-05-07T03:55:04;14.10;;;9.00;;
28577;SDS011;15769;52.248;15.818;2023-05-07T04:00:09;11.80;;;8.45;;
28577;SDS011;15769;52.248;15.818;2023-05-07T04:05:22;17.58;;;10.00;;
28577;SDS011;15769;52.248;15.818;2023-05-07T04:10:30;12.80;;;9.15;;
28577;SDS011;15769;52.248;15.818;2023-05-07T04:15:36;11.23;;;7.93;;
28577;SDS011;15769;52.248;15.818;2023-05-07T04:20:43;13.60;;;9.27;;
28577;SDS011;15769;52.248;15.818;2023-05-07T04:25:48;12.57;;;8.02;;
28577;SDS011;15769;52.248;15.818;2023-05-07T04:31:06;14.35;;;7.93;;
28577;SDS011;15769;52.248;15.818;2023-05-07T04:36:11;14.13;;;8.60;;
28577;SDS011;15769;52.248;15.818;2023-05-07T04:41:22;10.00;;;7.63;;
28577;SDS011;15769;52.248;15.818;2023-05-07T04:46:30;12.53;;;8.20;;
28577;SDS011;15769;52.248;15.818;2023-05-07T04:51:34;10.15;;;7.10;;
28577;SDS011;15769;52.248;15.818;2023-05-07T04:56:37;10.25;;;7.53;;
28577;SDS011;15769;52.248;15.818;2023-05-07T05:01:43;12.95;;;7.45;;
28577;SDS011;15769;52.248;15.818;2023-05-07T05:06:46;10.50;;;7.50;;
28577;SDS011;15769;52.248;15.818;2023-05-07T05:11:49;11.43;;;7.88;;
28577;SDS011;15769;52.248;15.818;2023-05-07T05:16:51;13.83;;;8.07;;
28577;SDS011;15769;52.248;15.818;2023-05-07T05:21:54;12.85;;;7.72;;
28577;SDS011;15769;52.248;15.818;2023-05-07T05:26:57;12.00;;;7.35;;
28577;SDS011;15769;52.248;15.818;2023-05-07T05:32:01;9.68;;;7.25;;
28577;SDS011;15769;52.248;15.818;2023-05-07T05:37:06;10.25;;;6.95;;
28577;SDS011;15769;52.248;15.818;2023-05-07T05:42:09;14.77;;;9.50;;
28577;SDS011;15769;52.248;15.818;2023-05-07T05:47:13;11.13;;;7.35;;
28577;SDS011;15769;52.248;15.818;2023-05-07T05:52:20;8.85;;;6.97;;
28577;SDS011;15769;52.248;15.818;2023-05-07T05:57:29;12.03;;;8.27;;
28577;SDS011;15769;52.248;15.818;2023-05-07T06:02:34;11.55;;;8.00;;
28577;SDS011;15769;52.248;15.818;2023-05-07T06:07:39;10.88;;;7.35;;
28577;SDS011;15769;52.248;15.818;2023-05-07T06:12:43;9.90;;;6.55;;
28577;SDS011;15769;52.248;15.818;2023-05-07T06:17:49;8.40;;;6.40;;
28577;SDS011;15769;52.248;15.818;2023-05-07T06:22:52;9.15;;;5.90;;
28577;SDS011;15769;52.248;15.818;2023-05-07T06:33:00;7.00;;;5.60;;
28577;SDS011;15769;52.248;15.818;2023-05-07T06:38:02;7.40;;;5.95;;
28577;SDS011;15769;52.248;15.818;2023-05-07T06:43:06;7.63;;;5.30;;
28577;SDS011;15769;52.248;15.818;2023-05-07T06:48:18;7.32;;;4.60;;
28577;SDS011;15769;52.248;15.818;2023-05-07T06:53:31;7.25;;;4.95;;
28577;SDS011;15769;52.248;15.818;2023-05-07T06:58:35;5.38;;;4.10;;
28577;SDS011;15769;52.248;15.818;2023-05-07T07:03:40;5.05;;;3.70;;
28577;SDS011;15769;52.248;15.818;2023-05-07T07:08:43;5.82;;;4.00;;
28577;SDS011;15769;52.248;15.818;2023-05-07T07:13:49;4.93;;;3.30;;
28577;SDS011;15769;52.248;15.818;2023-05-07T07:18:52;6.25;;;3.50;;
28577;SDS011;15769;52.248;15.818;2023-05-07T07:23:55;6.67;;;3.50;;
28577;SDS011;15769;52.248;15.818;2023-05-07T07:28:58;5.38;;;3.20;;
28577;SDS011;15769;52.248;15.818;2023-05-07T07:34:01;5.22;;;3.20;;
28577;SDS011;15769;52.248;15.818;2023-05-07T07:39:03;4.00;;;3.17;;
28577;SDS011;15769;52.248;15.818;2023-05-07T07:44:07;4.57;;;3.33;;
28577;SDS011;15769;52.248;15.818;2023-05-07T07:49:12;3.60;;;3.00;;
28577;SDS011;15769;52.248;15.818;2023-05-07T07:54:15;3.67;;;2.95;;
28577;SDS011;15769;52.248;15.818;2023-05-07T07:59:19;4.80;;;3.40;;
28577;SDS011;15769;52.248;15.818;2023-05-07T08:04:24;3.38;;;3.00;;
28577;SDS011;15769;52.248;15.818;2023-05-07T08:09:28;4.50;;;2.90;;
28577;SDS011;15769;52.248;15.818;2023-05-07T08:14:35;3.83;;;2.85;;
28577;SDS011;15769;52.248;15.818;2023-05-07T08:19:41;3.40;;;2.88;;
28577;SDS011;15769;52.248;15.818;2023-05-07T08:24:46;4.07;;;3.30;;
28577;SDS011;15769;52.248;15.818;2023-05-07T08:29:50;4.68;;;2.90;;
28577;SDS011;15769;52.248;15.818;2023-05-07T08:34:55;5.50;;;3.05;;
28577;SDS011;15769;52.248;15.818;2023-05-07T08:39:58;3.50;;;2.83;;
28577;SDS011;15769;52.248;15.818;2023-05-07T08:45:07;3.65;;;2.80;;
28577;SDS011;15769;52.248;15.818;2023-05-07T08:50:12;3.20;;;2.53;;
28577;SDS011;15769;52.248;15.818;2023-05-07T08:55:17;2.78;;;2.42;;
28577;SDS011;15769;52.248;15.818;2023-05-07T09:00:20;3.70;;;2.58;;
28577;SDS011;15769;52.248;15.818;2023-05-07T09:05:25;3.13;;;2.38;;
28577;SDS011;15769;52.248;15.818;2023-05-07T09:10:29;4.13;;;2.50;;
28577;SDS011;15769;52.248;15.818;2023-05-07T09:15:32;2.42;;;2.00;;
28577;SDS011;15769;52.248;15.818;2023-05-07T09:20:36;2.75;;;2.10;;
28577;SDS011;15769;52.248;15.818;2023-05-07T09:25:40;13.32;;;7.30;;
28577;SDS011;15769;52.248;15.818;2023-05-07T09:30:50;5.05;;;2.75;;
28577;SDS011;15769;52.248;15.818;2023-05-07T09:35:54;26.33;;;20.00;;
28577;SDS011;15769;52.248;15.818;2023-05-07T09:41:31;13.10;;;7.43;;
28577;SDS011;15769;52.248;15.818;2023-05-07T09:46:38;3.90;;;3.40;;
28577;SDS011;15769;52.248;15.818;2023-05-07T09:51:51;3.67;;;2.40;;
28577;SDS011;15769;52.248;15.818;2023-05-07T09:56:58;4.63;;;2.47;;
28577;SDS011;15769;52.248;15.818;2023-05-07T10:02:04;2.88;;;2.17;;
28577;SDS011;15769;52.248;15.818;2023-05-07T10:07:15;3.65;;;2.35;;
28577;SDS011;15769;52.248;15.818;2023-05-07T10:12:20;3.60;;;2.20;;
28577;SDS011;15769;52.248;15.818;2023-05-07T10:17:23;3.78;;;2.72;;
28577;SDS011;15769;52.248;15.818;2023-05-07T10:22:27;3.53;;;2.03;;
28577;SDS011;15769;52.248;15.818;2023-05-07T10:32:39;3.13;;;1.90;;
28577;SDS011;15769;52.248;15.818;2023-05-07T10:37:47;2.35;;;2.10;;
28577;SDS011;15769;52.248;15.818;2023-05-07T10:42:55;4.05;;;3.20;;
28577;SDS011;15769;52.248;15.818;2023-05-07T10:53:36;4.35;;;3.08;;
28577;SDS011;15769;52.248;15.818;2023-05-07T10:58:49;7.15;;;2.58;;
28577;SDS011;15769;52.248;15.818;2023-05-07T11:04:13;2.25;;;1.70;;
28577;SDS011;15769;52.248;15.818;2023-05-07T11:15:00;4.22;;;2.30;;
28577;SDS011;15769;52.248;15.818;2023-05-07T11:20:09;2.53;;;1.80;;
28577;SDS011;15769;52.248;15.818;2023-05-07T11:25:28;2.47;;;2.05;;
28577;SDS011;15769;52.248;15.818;2023-05-07T11:30:37;3.00;;;2.20;;
28577;SDS011;15769;52.248;15.818;2023-05-07T11:35:53;5.30;;;2.30;;
28577;SDS011;15769;52.248;15.818;2023-05-07T11:40:59;4.15;;;2.50;;
28577;SDS011;15769;52.248;15.818;2023-05-07T11:46:06;6.55;;;2.95;;
28577;SDS011;15769;52.248;15.818;2023-05-07T11:51:10;4.85;;;2.95;;
28577;SDS011;15769;52.248;15.818;2023-05-07T11:56:16;2.55;;;2.35;;
28577;SDS011;15769;52.248;15.818;2023-05-07T12:01:20;28.23;;;12.05;;
28577;SDS011;15769;52.248;15.818;2023-05-07T12:12:20;3.42;;;2.47;;
28577;SDS011;15769;52.248;15.818;2023-05-07T12:17:22;4.53;;;2.78;;
28577;SDS011;15769;52.248;15.818;2023-05-07T12:22:25;3.13;;;2.33;;
28577;SDS011;15769;52.248;15.818;2023-05-07T12:27:28;3.40;;;2.38;;
28577;SDS011;15769;52.248;15.818;2023-05-07T12:32:31;8.27;;;3.75;;
28577;SDS011;15769;52.248;15.818;2023-05-07T12:37:38;3.38;;;2.30;;
28577;SDS011;15769;52.248;15.818;2023-05-07T12:42:41;2.53;;;2.25;;
28577;SDS011;15769;52.248;15.818;2023-05-07T12:47:52;6.03;;;2.35;;
28577;SDS011;15769;52.248;15.818;2023-05-07T12:58:00;3.00;;;2.70;;
28577;SDS011;15769;52.248;15.818;2023-05-07T13:03:06;2.78;;;2.47;;
28577;SDS011;15769;52.248;15.818;2023-05-07T13:08:23;2.67;;;2.13;;
28577;SDS011;15769;52.248;15.818;2023-05-07T13:13:48;3.00;;;2.28;;
28577;SDS011;15769;52.248;15.818;2023-05-07T13:18:52;3.33;;;2.50;;
28577;SDS011;15769;52.248;15.818;2023-05-07T13:23:54;4.00;;;2.80;;
28577;SDS011;15769;52.248;15.818;2023-05-07T13:28:57;3.70;;;3.00;;
28577;SDS011;15769;52.248;15.818;2023-05-07T13:33:59;9.80;;;6.60;;
28577;SDS011;15769;52.248;15.818;2023-05-07T13:39:03;7.40;;;5.03;;
28577;SDS011;15769;52.248;15.818;2023-05-07T13:44:06;10.50;;;8.05;;
28577;SDS011;15769;52.248;15.818;2023-05-07T13:49:08;11.45;;;6.10;;
28577;SDS011;15769;52.248;15.818;2023-05-07T13:54:13;4.32;;;3.35;;
28577;SDS011;15769;52.248;15.818;2023-05-07T13:59:15;10.65;;;6.45;;
28577;SDS011;15769;52.248;15.818;2023-05-07T14:04:18;5.43;;;3.90;;
28577;SDS011;15769;52.248;15.818;2023-05-07T14:09:21;4.63;;;2.70;;
28577;SDS011;15769;52.248;15.818;2023-05-07T14:14:25;4.78;;;2.42;;
28577;SDS011;15769;52.248;15.818;2023-05-07T14:19:27;5.13;;;3.05;;
28577;SDS011;15769;52.248;15.818;2023-05-07T14:29:39;3.55;;;2.47;;
28577;SDS011;15769;52.248;15.818;2023-05-07T14:34:43;3.60;;;2.97;;
28577;SDS011;15769;52.248;15.818;2023-05-07T14:39:46;4.75;;;2.70;;
28577;SDS011;15769;52.248;15.818;2023-05-07T14:44:51;3.75;;;2.30;;
28577;SDS011;15769;52.248;15.818;2023-05-07T14:49:55;3.63;;;2.70;;
28577;SDS011;15769;52.248;15.818;2023-05-07T14:54:59;3.00;;;2.20;;
28577;SDS011;15769;52.248;15.818;2023-05-07T15:00:03;2.65;;;2.35;;
28577;SDS011;15769;52.248;15.818;2023-05-07T15:05:07;2.28;;;2.08;;
28577;SDS011;15769;52.248;15.818;2023-05-07T15:10:09;2.60;;;2.03;;
28577;SDS011;15769;52.248;15.818;2023-05-07T15:15:12;5.47;;;2.40;;
28577;SDS011;15769;52.248;15.818;2023-05-07T15:20:14;3.65;;;2.08;;
28577;SDS011;15769;52.248;15.818;2023-05-07T15:25:17;4.43;;;3.07;;
28577;SDS011;15769;52.248;15.818;2023-05-07T15:30:20;4.97;;;3.13;;
28577;SDS011;15769;52.248;15.818;2023-05-07T15:35:22;10.43;;;9.53;;
28577;SDS011;15769;52.248;15.818;2023-05-07T15:40:25;8.32;;;3.53;;
28577;SDS011;15769;52.248;15.818;2023-05-07T15:45:28;5.88;;;3.75;;
28577;SDS011;15769;52.248;15.818;2023-05-07T15:50:30;9.63;;;4.60;;
28577;SDS011;15769;52.248;15.818;2023-05-07T16:00:37;6.38;;;3.95;;
28577;SDS011;15769;52.248;15.818;2023-05-07T16:05:41;8.45;;;3.80;;
28577;SDS011;15769;52.248;15.818;2023-05-07T16:10:44;5.93;;;4.10;;
28577;SDS011;15769;52.248;15.818;2023-05-07T16:15:47;5.47;;;3.57;;
28577;SDS011;15769;52.248;15.818;2023-05-07T16:20:53;11.45;;;4.18;;
28577;SDS011;15769;52.248;15.818;2023-05-07T16:25:55;7.82;;;4.38;;
28577;SDS011;15769;52.248;15.818;2023-05-07T16:30:58;10.50;;;6.60;;
28577;SDS011;15769;52.248;15.818;2023-05-07T16:36:01;5.82;;;3.25;;
28577;SDS011;15769;52.248;15.818;2023-05-07T16:41:04;4.70;;;2.97;;
28577;SDS011;15769;52.248;15.818;2023-05-07T16:46:07;3.57;;;3.00;;
28577;SDS011;15769;52.248;15.818;2023-05-07T16:51:09;9.30;;;4.33;;
28577;SDS011;15769;52.248;15.818;2023-05-07T16:56:12;11.13;;;5.10;;
28577;SDS011;15769;52.248;15.818;2023-05-07T17:01:14;13.82;;;4.70;;
28577;SDS011;15769;52.248;15.818;2023-05-07T17:06:19;14.68;;;6.78;;
28577;SDS011;15769;52.248;15.818;2023-05-07T17:11:21;14.80;;;5.45;;
28577;SDS011;15769;52.248;15.818;2023-05-07T17:16:24;5.35;;;3.53;;
28577;SDS011;15769;52.248;15.818;2023-05-07T17:21:27;11.10;;;4.38;;
28577;SDS011;15769;52.248;15.818;2023-05-07T17:26:30;6.22;;;4.18;;
28577;SDS011;15769;52.248;15.818;2023-05-07T17:31:36;5.85;;;4.00;;
28577;SDS011;15769;52.248;15.818;2023-05-07T17:41:42;6.38;;;4.30;;
28577;SDS011;15769;52.248;15.818;2023-05-07T17:46:44;7.97;;;4.40;;
28577;SDS011;15769;52.248;15.818;2023-05-07T17:51:47;6.88;;;4.63;;
28577;SDS011;15769;52.248;15.818;2023-05-07T17:56:56;4.63;;;3.83;;
28577;SDS011;15769;52.248;15.818;2023-05-07T18:01:59;5.63;;;4.53;;
28577;SDS011;15769;52.248;15.818;2023-05-07T18:07:01;14.20;;;7.78;;
28577;SDS011;15769;52.248;15.818;2023-05-07T18:12:04;4.80;;;3.97;;
28577;SDS011;15769;52.248;15.818;2023-05-07T18:17:07;6.27;;;4.10;;
28577;SDS011;15769;52.248;15.818;2023-05-07T18:22:09;8.00;;;4.23;;
28577;SDS011;15769;52.248;15.818;2023-05-07T18:27:12;4.87;;;3.97;;
28577;SDS011;15769;52.248;15.818;2023-05-07T18:32:15;6.35;;;4.18;;
28577;SDS011;15769;52.248;15.818;2023-05-07T18:37:18;6.03;;;4.50;;
28577;SDS011;15769;52.248;15.818;2023-05-07T18:42:20;5.27;;;4.03;;
28577;SDS011;15769;52.248;15.818;2023-05-07T18:47:23;5.85;;;4.30;;
28577;SDS011;15769;52.248;15.818;2023-05-07T18:52:25;8.13;;;4.72;;
28577;SDS011;15769;52.248;15.818;2023-05-07T18:57:28;7.87;;;4.40;;
28577;SDS011;15769;52.248;15.818;2023-05-07T19:02:31;7.03;;;4.70;;
28577;SDS011;15769;52.248;15.818;2023-05-07T19:07:34;6.65;;;4.85;;
28577;SDS011;15769;52.248;15.818;2023-05-07T19:12:37;9.05;;;4.63;;
28577;SDS011;15769;52.248;15.818;2023-05-07T19:17:40;6.40;;;4.03;;
28577;SDS011;15769;52.248;15.818;2023-05-07T19:22:42;6.32;;;4.85;;
28577;SDS011;15769;52.248;15.818;2023-05-07T19:27:45;7.82;;;5.13;;
28577;SDS011;15769;52.248;15.818;2023-05-07T19:32:49;7.40;;;5.38;;
28577;SDS011;15769;52.248;15.818;2023-05-07T19:37:51;8.90;;;5.93;;
28577;SDS011;15769;52.248;15.818;2023-05-07T19:42:54;10.13;;;6.45;;
28577;SDS011;15769;52.248;15.818;2023-05-07T19:47:57;9.33;;;6.27;;
28577;SDS011;15769;52.248;15.818;2023-05-07T19:52:59;11.00;;;6.05;;
28577;SDS011;15769;52.248;15.818;2023-05-07T19:58:02;18.83;;;11.85;;
28577;SDS011;15769;52.248;15.818;2023-05-07T20:03:04;14.27;;;9.03;;
28577;SDS011;15769;52.248;15.818;2023-05-07T20:08:07;10.63;;;6.07;;
28577;SDS011;15769;52.248;15.818;2023-05-07T20:13:10;9.10;;;6.15;;
28577;SDS011;15769;52.248;15.818;2023-05-07T20:18:13;9.57;;;6.47;;
28577;SDS011;15769;52.248;15.818;2023-05-07T20:23:17;12.10;;;8.50;;
28577;SDS011;15769;52.248;15.818;2023-05-07T20:28:19;41.20;;;13.68;;
28577;SDS011;15769;52.248;15.818;2023-05-07T20:33:21;67.00;;;21.75;;
28577;SDS011;15769;52.248;15.818;2023-05-07T20:38:24;57.45;;;19.92;;
28577;SDS011;15769;52.248;15.818;2023-05-07T20:43:28;23.75;;;12.07;;
28577;SDS011;15769;52.248;15.818;2023-05-07T20:48:33;18.23;;;10.30;;
28577;SDS011;15769;52.248;15.818;2023-05-07T20:53:38;16.52;;;10.40;;
28577;SDS011;15769;52.248;15.818;2023-05-07T20:58:42;16.95;;;9.23;;
28577;SDS011;15769;52.248;15.818;2023-05-07T21:03:45;13.87;;;8.43;;
28577;SDS011;15769;52.248;15.818;2023-05-07T21:08:47;11.83;;;7.90;;
28577;SDS011;15769;52.248;15.818;2023-05-07T21:13:52;13.70;;;8.50;;
28577;SDS011;15769;52.248;15.818;2023-05-07T21:18:54;16.10;;;9.07;;
28577;SDS011;15769;52.248;15.818;2023-05-07T21:23:57;14.60;;;9.67;;
28577;SDS011;15769;52.248;15.818;2023-05-07T21:29:01;19.13;;;11.90;;
28577;SDS011;15769;52.248;15.818;2023-05-07T21:34:04;22.03;;;12.70;;
28577;SDS011;15769;52.248;15.818;2023-05-07T21:39:09;17.73;;;9.57;;
28577;SDS011;15769;52.248;15.818;2023-05-07T21:44:12;16.98;;;10.38;;
28577;SDS011;15769;52.248;15.818;2023-05-07T21:49:15;18.08;;;10.00;;
28577;SDS011;15769;52.248;15.818;2023-05-07T21:54:18;15.00;;;9.13;;
28577;SDS011;15769;52.248;15.818;2023-05-07T21:59:21;10.55;;;7.50;;
28577;SDS011;15769;52.248;15.818;2023-05-07T22:04:26;14.43;;;8.35;;
28577;SDS011;15769;52.248;15.818;2023-05-07T22:09:32;11.67;;;7.50;;
28577;SDS011;15769;52.248;15.818;2023-05-07T22:14:35;9.13;;;7.00;;
28577;SDS011;15769;52.248;15.818;2023-05-07T22:19:38;19.33;;;11.80;;
28577;SDS011;15769;52.248;15.818;2023-05-07T22:24:42;22.95;;;12.50;;
28577;SDS011;15769;52.248;15.818;2023-05-07T22:29:47;17.00;;;9.90;;
28577;SDS011;15769;52.248;15.818;2023-05-07T22:34:50;32.00;;;16.83;;
28577;SDS011;15769;52.248;15.818;2023-05-07T22:39:53;18.40;;;11.65;;
28577;SDS011;15769;52.248;15.818;2023-05-07T22:44:56;16.10;;;9.88;;
28577;SDS011;15769;52.248;15.818;2023-05-07T22:49:59;16.17;;;9.55;;
28577;SDS011;15769;52.248;15.818;2023-05-07T22:55:02;22.52;;;13.52;;
28577;SDS011;15769;52.248;15.818;2023-05-07T23:00:06;20.75;;;11.90;;
28577;SDS011;15769;52.248;15.818;2023-05-07T23:10:12;19.20;;;11.07;;
28577;SDS011;15769;52.248;15.818;2023-05-07T23:15:15;17.85;;;11.18;;
28577;SDS011;15769;52.248;15.818;2023-05-07T23:20:23;16.00;;;9.98;;
28577;SDS011;15769;52.248;15.818;2023-05-07T23:25:26;18.40;;;10.87;;
28577;SDS011;15769;52.248;15.818;2023-05-07T23:30:30;12.90;;;8.57;;
28577;SDS011;15769;52.248;15.818;2023-05-07T23:35:33;15.40;;;9.73;;
28577;SDS011;15769;52.248;15.818;2023-05-07T23:40:36;12.30;;;8.07;;
28577;SDS011;15769;52.248;15.818;2023-05-07T23:45:39;13.37;;;7.83;;
28577;SDS011;15769;52.248;15.818;2023-05-07T23:50:42;11.55;;;7.72;;
28577;SDS011;15769;52.248;15.818;2023-05-07T23:55:46;11.43;;;7.32;;
